sensor_id;sensor_type;location;lat;lon;timestamp;temperature;humidity
54124;DHT22;55741;53.252;5.788;2023-02-22T00:00:40;7.40;99.90
54124;DHT22;55741;53.252;5.788;2023-02-22T00:05:52;7.40;99.90
54124;DHT22;55741;53.252;5.788;2023-02-22T00:08:21;7.40;99.90
54124;DHT22;55741;53.252;5.788;2023-02-22T00:10:48;7.40;99.90
54124;DHT22;55741;53.252;5.788;2023-02-22T00:13:18;7.40;99.90
54124;DHT22;55741;53.252;5.788;2023-02-22T00:15:47;7.40;99.90
54124;DHT22;55741;53.252;5.788;2023-02-22T00:18:16;7.40;99.90
54124;DHT22;55741;53.252;5.788;2023-02-22T00:20:42;7.40;99.90
54124;DHT22;55741;53.252;5.788;2023-02-22T00:23:16;7.40;99.90
54124;DHT22;55741;53.252;5.788;2023-02-22T00:25:46;7.40;99.90
54124;DHT22;55741;53.252;5.788;2023-02-22T00:28:13;7.40;99.90
54124;DHT22;55741;53.252;5.788;2023-02-22T00:30:39;7.50;99.90
54124;DHT22;55741;53.252;5.788;2023-02-22T00:33:09;7.40;99.90
54124;DHT22;55741;53.252;5.788;2023-02-22T00:35:37;7.40;99.90
54124;DHT22;55741;53.252;5.788;2023-02-22T00:38:03;7.40;99.90
54124;DHT22;55741;53.252;5.788;2023-02-22T00:40:32;7.40;99.90
54124;DHT22;55741;53.252;5.788;2023-02-22T00:43:00;7.40;99.90
54124;DHT22;55741;53.252;5.788;2023-02-22T00:45:28;7.40;99.90
54124;DHT22;55741;53.252;5.788;2023-02-22T00:47:54;7.40;99.90
54124;DHT22;55741;53.252;5.788;2023-02-22T00:50:22;7.40;99.90
54124;DHT22;55741;53.252;5.788;2023-02-22T00:52:49;7.40;99.90
54124;DHT22;55741;53.252;5.788;2023-02-22T00:55:24;7.40;99.90
54124;DHT22;55741;53.252;5.788;2023-02-22T00:57:51;7.40;99.90
54124;DHT22;55741;53.252;5.788;2023-02-22T01:00:22;7.40;99.90
54124;DHT22;55741;53.252;5.788;2023-02-22T01:02:48;7.40;99.90
54124;DHT22;55741;53.252;5.788;2023-02-22T01:05:19;7.40;99.90
54124;DHT22;55741;53.252;5.788;2023-02-22T01:07:46;7.40;99.90
54124;DHT22;55741;53.252;5.788;2023-02-22T01:10:13;7.40;99.90
54124;DHT22;55741;53.252;5.788;2023-02-22T01:12:39;7.40;99.90
54124;DHT22;55741;53.252;5.788;2023-02-22T01:15:07;7.40;99.90
54124;DHT22;55741;53.252;5.788;2023-02-22T01:17:35;7.40;99.90
54124;DHT22;55741;53.252;5.788;2023-02-22T01:20:03;7.40;99.90
54124;DHT22;55741;53.252;5.788;2023-02-22T01:22:35;7.40;99.90
54124;DHT22;55741;53.252;5.788;2023-02-22T01:25:03;7.40;99.90
54124;DHT22;55741;53.252;5.788;2023-02-22T01:27:33;7.40;99.90
54124;DHT22;55741;53.252;5.788;2023-02-22T01:29:59;7.40;99.90
54124;DHT22;55741;53.252;5.788;2023-02-22T01:32:25;7.40;99.90
54124;DHT22;55741;53.252;5.788;2023-02-22T01:34:54;7.40;99.90
54124;DHT22;55741;53.252;5.788;2023-02-22T01:37:22;7.40;99.90
54124;DHT22;55741;53.252;5.788;2023-02-22T01:39:48;7.40;99.90
54124;DHT22;55741;53.252;5.788;2023-02-22T01:42:13;7.40;99.90
54124;DHT22;55741;53.252;5.788;2023-02-22T01:44:39;7.40;99.90
54124;DHT22;55741;53.252;5.788;2023-02-22T01:47:06;7.40;99.90
54124;DHT22;55741;53.252;5.788;2023-02-22T01:49:46;7.40;99.90
54124;DHT22;55741;53.252;5.788;2023-02-22T01:52:15;7.40;99.90
54124;DHT22;55741;53.252;5.788;2023-02-22T01:55:02;7.40;99.90
54124;DHT22;55741;53.252;5.788;2023-02-22T01:57:34;7.40;99.90
54124;DHT22;55741;53.252;5.788;2023-02-22T02:00:06;7.40;99.90
54124;DHT22;55741;53.252;5.788;2023-02-22T02:02:41;7.40;99.90
54124;DHT22;55741;53.252;5.788;2023-02-22T02:05:09;7.40;99.90
54124;DHT22;55741;53.252;5.788;2023-02-22T02:07:36;7.40;99.90
54124;DHT22;55741;53.252;5.788;2023-02-22T02:10:12;7.40;99.90
54124;DHT22;55741;53.252;5.788;2023-02-22T02:12:43;7.40;99.90
54124;DHT22;55741;53.252;5.788;2023-02-22T02:17:43;7.40;99.90
54124;DHT22;55741;53.252;5.788;2023-02-22T02:22:51;7.40;99.90
54124;DHT22;55741;53.252;5.788;2023-02-22T02:25:29;7.40;99.90
54124;DHT22;55741;53.252;5.788;2023-02-22T02:37:17;7.40;99.90
54124;DHT22;55741;53.252;5.788;2023-02-22T02:42:17;7.40;99.90
54124;DHT22;55741;53.252;5.788;2023-02-22T02:44:59;7.40;99.90
54124;DHT22;55741;53.252;5.788;2023-02-22T02:47:30;7.40;99.90
54124;DHT22;55741;53.252;5.788;2023-02-22T02:50:10;7.40;99.90
54124;DHT22;55741;53.252;5.788;2023-02-22T02:52:40;7.40;99.90
54124;DHT22;55741;53.252;5.788;2023-02-22T02:55:12;7.40;99.90
54124;DHT22;55741;53.252;5.788;2023-02-22T02:57:39;7.50;99.90
54124;DHT22;55741;53.252;5.788;2023-02-22T03:00:06;7.40;99.90
54124;DHT22;55741;53.252;5.788;2023-02-22T03:02:56;7.40;99.90
54124;DHT22;55741;53.252;5.788;2023-02-22T03:05:36;7.40;99.90
54124;DHT22;55741;53.252;5.788;2023-02-22T03:11:17;7.40;99.90
54124;DHT22;55741;53.252;5.788;2023-02-22T03:13:55;7.50;99.90
54124;DHT22;55741;53.252;5.788;2023-02-22T03:16:39;7.50;99.90
54124;DHT22;55741;53.252;5.788;2023-02-22T03:19:13;7.50;99.90
54124;DHT22;55741;53.252;5.788;2023-02-22T03:21:45;7.50;99.90
54124;DHT22;55741;53.252;5.788;2023-02-22T03:24:58;7.50;99.90
54124;DHT22;55741;53.252;5.788;2023-02-22T03:27:17;7.40;99.90
54124;DHT22;55741;53.252;5.788;2023-02-22T03:29:48;7.50;99.90
54124;DHT22;55741;53.252;5.788;2023-02-22T03:32:20;7.50;99.90
54124;DHT22;55741;53.252;5.788;2023-02-22T03:34:58;7.50;99.90
54124;DHT22;55741;53.252;5.788;2023-02-22T03:37:30;7.50;99.90
54124;DHT22;55741;53.252;5.788;2023-02-22T03:39:59;7.40;99.90
54124;DHT22;55741;53.252;5.788;2023-02-22T03:42:29;7.50;99.90
54124;DHT22;55741;53.252;5.788;2023-02-22T03:44:58;7.40;99.90
54124;DHT22;55741;53.252;5.788;2023-02-22T03:47:38;7.50;99.90
54124;DHT22;55741;53.252;5.788;2023-02-22T03:50:28;7.50;99.90
54124;DHT22;55741;53.252;5.788;2023-02-22T03:52:57;7.50;99.90
54124;DHT22;55741;53.252;5.788;2023-02-22T03:55:24;7.40;99.90
54124;DHT22;55741;53.252;5.788;2023-02-22T03:57:55;7.50;99.90
54124;DHT22;55741;53.252;5.788;2023-02-22T04:00:24;7.40;99.90
54124;DHT22;55741;53.252;5.788;2023-02-22T04:02:50;7.50;99.90
54124;DHT22;55741;53.252;5.788;2023-02-22T04:05:17;7.40;99.90
54124;DHT22;55741;53.252;5.788;2023-02-22T04:07:43;7.50;99.90
54124;DHT22;55741;53.252;5.788;2023-02-22T04:10:10;7.40;99.90
54124;DHT22;55741;53.252;5.788;2023-02-22T04:12:37;7.40;99.90
54124;DHT22;55741;53.252;5.788;2023-02-22T04:15:05;7.40;99.90
54124;DHT22;55741;53.252;5.788;2023-02-22T04:17:51;7.50;99.90
54124;DHT22;55741;53.252;5.788;2023-02-22T04:20:18;7.40;99.90
54124;DHT22;55741;53.252;5.788;2023-02-22T04:22:45;7.50;99.90
54124;DHT22;55741;53.252;5.788;2023-02-22T04:25:13;7.40;99.90
54124;DHT22;55741;53.252;5.788;2023-02-22T04:27:38;7.40;99.90
54124;DHT22;55741;53.252;5.788;2023-02-22T04:30:04;7.50;99.90
54124;DHT22;55741;53.252;5.788;2023-02-22T04:32:50;7.50;99.90
54124;DHT22;55741;53.252;5.788;2023-02-22T04:35:16;7.50;99.90
54124;DHT22;55741;53.252;5.788;2023-02-22T04:37:42;7.50;99.90
54124;DHT22;55741;53.252;5.788;2023-02-22T04:40:10;7.50;99.90
54124;DHT22;55741;53.252;5.788;2023-02-22T04:42:37;7.50;99.90
54124;DHT22;55741;53.252;5.788;2023-02-22T04:45:05;7.50;99.90
54124;DHT22;55741;53.252;5.788;2023-02-22T04:47:33;7.50;99.90
54124;DHT22;55741;53.252;5.788;2023-02-22T04:49:59;7.50;99.90
54124;DHT22;55741;53.252;5.788;2023-02-22T04:52:26;7.40;99.90
54124;DHT22;55741;53.252;5.788;2023-02-22T04:54:52;7.50;99.90
54124;DHT22;55741;53.252;5.788;2023-02-22T04:57:28;7.50;99.90
54124;DHT22;55741;53.252;5.788;2023-02-22T04:59:55;7.50;99.90
54124;DHT22;55741;53.252;5.788;2023-02-22T05:02:25;7.40;99.90
54124;DHT22;55741;53.252;5.788;2023-02-22T05:04:50;7.40;99.90
54124;DHT22;55741;53.252;5.788;2023-02-22T05:07:20;7.40;99.90
54124;DHT22;55741;53.252;5.788;2023-02-22T05:09:46;7.40;99.90
54124;DHT22;55741;53.252;5.788;2023-02-22T05:12:12;7.30;99.90
54124;DHT22;55741;53.252;5.788;2023-02-22T05:14:38;7.40;99.90
54124;DHT22;55741;53.252;5.788;2023-02-22T05:17:04;7.40;99.90
54124;DHT22;55741;53.252;5.788;2023-02-22T05:19:30;7.30;99.90
54124;DHT22;55741;53.252;5.788;2023-02-22T05:21:56;7.30;99.90
54124;DHT22;55741;53.252;5.788;2023-02-22T05:24:22;7.30;99.90
54124;DHT22;55741;53.252;5.788;2023-02-22T05:26:48;7.30;99.90
54124;DHT22;55741;53.252;5.788;2023-02-22T05:29:15;7.30;99.90
54124;DHT22;55741;53.252;5.788;2023-02-22T05:31:42;7.30;99.90
54124;DHT22;55741;53.252;5.788;2023-02-22T05:34:17;7.30;99.90
54124;DHT22;55741;53.252;5.788;2023-02-22T05:36:43;7.20;99.90
54124;DHT22;55741;53.252;5.788;2023-02-22T05:39:09;7.30;99.90
54124;DHT22;55741;53.252;5.788;2023-02-22T05:41:39;7.30;99.90
54124;DHT22;55741;53.252;5.788;2023-02-22T05:44:05;7.30;99.90
54124;DHT22;55741;53.252;5.788;2023-02-22T05:46:31;7.20;99.90
54124;DHT22;55741;53.252;5.788;2023-02-22T05:48:57;7.30;99.90
54124;DHT22;55741;53.252;5.788;2023-02-22T05:51:23;7.30;99.90
54124;DHT22;55741;53.252;5.788;2023-02-22T05:53:49;7.30;99.90
54124;DHT22;55741;53.252;5.788;2023-02-22T05:56:25;7.30;99.90
54124;DHT22;55741;53.252;5.788;2023-02-22T05:58:51;7.30;99.90
54124;DHT22;55741;53.252;5.788;2023-02-22T06:01:26;7.20;99.90
54124;DHT22;55741;53.252;5.788;2023-02-22T06:03:52;7.20;99.90
54124;DHT22;55741;53.252;5.788;2023-02-22T06:06:19;7.30;99.90
54124;DHT22;55741;53.252;5.788;2023-02-22T06:08:45;7.30;99.90
54124;DHT22;55741;53.252;5.788;2023-02-22T06:11:15;7.20;99.90
54124;DHT22;55741;53.252;5.788;2023-02-22T06:13:41;7.20;99.90
54124;DHT22;55741;53.252;5.788;2023-02-22T06:16:07;7.20;99.90
54124;DHT22;55741;53.252;5.788;2023-02-22T06:18:33;7.20;99.90
54124;DHT22;55741;53.252;5.788;2023-02-22T06:20:59;7.20;99.90
54124;DHT22;55741;53.252;5.788;2023-02-22T06:23:25;7.20;99.90
54124;DHT22;55741;53.252;5.788;2023-02-22T06:25:52;7.20;99.90
54124;DHT22;55741;53.252;5.788;2023-02-22T06:28:18;7.20;99.90
54124;DHT22;55741;53.252;5.788;2023-02-22T06:30:44;7.10;99.90
54124;DHT22;55741;53.252;5.788;2023-02-22T06:33:10;7.10;99.90
54124;DHT22;55741;53.252;5.788;2023-02-22T06:35:37;7.10;99.90
54124;DHT22;55741;53.252;5.788;2023-02-22T06:38:02;7.10;99.90
54124;DHT22;55741;53.252;5.788;2023-02-22T06:40:35;7.10;99.90
54124;DHT22;55741;53.252;5.788;2023-02-22T06:43:03;7.10;99.90
54124;DHT22;55741;53.252;5.788;2023-02-22T06:45:29;7.10;99.90
54124;DHT22;55741;53.252;5.788;2023-02-22T06:47:55;7.10;99.90
54124;DHT22;55741;53.252;5.788;2023-02-22T06:50:27;7.10;99.90
54124;DHT22;55741;53.252;5.788;2023-02-22T06:52:54;7.10;99.90
54124;DHT22;55741;53.252;5.788;2023-02-22T06:55:31;7.10;99.90
54124;DHT22;55741;53.252;5.788;2023-02-22T06:57:58;7.00;99.90
54124;DHT22;55741;53.252;5.788;2023-02-22T07:00:26;7.00;99.90
54124;DHT22;55741;53.252;5.788;2023-02-22T07:02:54;7.00;99.90
54124;DHT22;55741;53.252;5.788;2023-02-22T07:05:22;7.00;99.90
54124;DHT22;55741;53.252;5.788;2023-02-22T07:07:51;6.90;99.90
54124;DHT22;55741;53.252;5.788;2023-02-22T07:10:27;6.90;99.90
54124;DHT22;55741;53.252;5.788;2023-02-22T07:12:53;6.90;99.90
54124;DHT22;55741;53.252;5.788;2023-02-22T07:15:21;6.90;99.90
54124;DHT22;55741;53.252;5.788;2023-02-22T07:17:48;6.80;99.90
54124;DHT22;55741;53.252;5.788;2023-02-22T07:20:15;6.90;99.90
54124;DHT22;55741;53.252;5.788;2023-02-22T07:22:51;6.90;99.90
54124;DHT22;55741;53.252;5.788;2023-02-22T07:25:17;6.90;99.90
54124;DHT22;55741;53.252;5.788;2023-02-22T07:27:56;6.80;99.90
54124;DHT22;55741;53.252;5.788;2023-02-22T07:30:26;6.90;99.90
54124;DHT22;55741;53.252;5.788;2023-02-22T07:32:55;6.90;99.90
54124;DHT22;55741;53.252;5.788;2023-02-22T07:35:24;6.90;99.90
54124;DHT22;55741;53.252;5.788;2023-02-22T07:37:51;6.90;99.90
54124;DHT22;55741;53.252;5.788;2023-02-22T07:40:18;6.90;99.90
54124;DHT22;55741;53.252;5.788;2023-02-22T07:43:02;6.80;99.90
54124;DHT22;55741;53.252;5.788;2023-02-22T07:45:34;6.80;99.90
54124;DHT22;55741;53.252;5.788;2023-02-22T07:48:02;6.80;99.90
54124;DHT22;55741;53.252;5.788;2023-02-22T07:50:30;6.80;99.90
54124;DHT22;55741;53.252;5.788;2023-02-22T07:52:58;6.90;99.90
54124;DHT22;55741;53.252;5.788;2023-02-22T07:55:26;6.80;99.90
54124;DHT22;55741;53.252;5.788;2023-02-22T07:57:59;6.80;99.90
54124;DHT22;55741;53.252;5.788;2023-02-22T08:00:38;6.90;99.90
54124;DHT22;55741;53.252;5.788;2023-02-22T08:03:06;6.90;99.90
54124;DHT22;55741;53.252;5.788;2023-02-22T08:05:34;6.90;99.90
54124;DHT22;55741;53.252;5.788;2023-02-22T08:08:20;6.90;99.90
54124;DHT22;55741;53.252;5.788;2023-02-22T08:11:05;6.90;99.90
54124;DHT22;55741;53.252;5.788;2023-02-22T08:13:31;7.00;99.90
54124;DHT22;55741;53.252;5.788;2023-02-22T08:15:57;6.90;99.90
54124;DHT22;55741;53.252;5.788;2023-02-22T08:18:24;7.00;99.90
54124;DHT22;55741;53.252;5.788;2023-02-22T08:20:52;7.00;99.90
54124;DHT22;55741;53.252;5.788;2023-02-22T08:23:19;7.00;99.90
54124;DHT22;55741;53.252;5.788;2023-02-22T08:25:47;7.00;99.90
54124;DHT22;55741;53.252;5.788;2023-02-22T08:28:18;7.00;99.90
54124;DHT22;55741;53.252;5.788;2023-02-22T08:30:48;7.00;99.90
54124;DHT22;55741;53.252;5.788;2023-02-22T08:33:15;7.00;99.90
54124;DHT22;55741;53.252;5.788;2023-02-22T08:35:45;7.00;99.90
54124;DHT22;55741;53.252;5.788;2023-02-22T08:38:18;7.00;99.90
54124;DHT22;55741;53.252;5.788;2023-02-22T08:40:46;7.00;99.90
54124;DHT22;55741;53.252;5.788;2023-02-22T08:43:12;7.00;99.90
54124;DHT22;55741;53.252;5.788;2023-02-22T08:45:40;7.00;99.90
54124;DHT22;55741;53.252;5.788;2023-02-22T08:48:06;7.00;99.90
54124;DHT22;55741;53.252;5.788;2023-02-22T08:50:32;7.00;99.90
54124;DHT22;55741;53.252;5.788;2023-02-22T08:52:59;7.00;99.90
54124;DHT22;55741;53.252;5.788;2023-02-22T08:55:30;7.00;99.90
54124;DHT22;55741;53.252;5.788;2023-02-22T08:57:57;7.10;99.90
54124;DHT22;55741;53.252;5.788;2023-02-22T09:00:24;7.10;99.90
54124;DHT22;55741;53.252;5.788;2023-02-22T09:02:52;7.10;99.90
54124;DHT22;55741;53.252;5.788;2023-02-22T09:05:20;7.10;99.90
54124;DHT22;55741;53.252;5.788;2023-02-22T09:07:47;7.10;99.90
54124;DHT22;55741;53.252;5.788;2023-02-22T09:10:15;7.10;99.90
54124;DHT22;55741;53.252;5.788;2023-02-22T09:12:41;7.10;99.90
54124;DHT22;55741;53.252;5.788;2023-02-22T09:15:08;7.20;99.90
54124;DHT22;55741;53.252;5.788;2023-02-22T09:17:35;7.20;99.90
54124;DHT22;55741;53.252;5.788;2023-02-22T09:20:05;7.20;99.90
54124;DHT22;55741;53.252;5.788;2023-02-22T09:22:31;7.20;99.90
54124;DHT22;55741;53.252;5.788;2023-02-22T09:24:57;7.20;99.90
54124;DHT22;55741;53.252;5.788;2023-02-22T09:27:23;7.20;99.90
54124;DHT22;55741;53.252;5.788;2023-02-22T09:29:53;7.20;99.90
54124;DHT22;55741;53.252;5.788;2023-02-22T09:32:24;7.20;99.90
54124;DHT22;55741;53.252;5.788;2023-02-22T09:34:53;7.20;99.90
54124;DHT22;55741;53.252;5.788;2023-02-22T09:37:19;7.20;99.90
54124;DHT22;55741;53.252;5.788;2023-02-22T09:39:45;7.30;99.90
54124;DHT22;55741;53.252;5.788;2023-02-22T09:42:16;7.40;99.90
54124;DHT22;55741;53.252;5.788;2023-02-22T09:47:56;7.40;99.90
54124;DHT22;55741;53.252;5.788;2023-02-22T09:50:37;7.40;99.90
54124;DHT22;55741;53.252;5.788;2023-02-22T09:53:29;7.40;99.90
54124;DHT22;55741;53.252;5.788;2023-02-22T09:56:21;7.40;99.90
54124;DHT22;55741;53.252;5.788;2023-02-22T09:58:51;7.40;99.90
54124;DHT22;55741;53.252;5.788;2023-02-22T10:01:31;7.40;99.90
54124;DHT22;55741;53.252;5.788;2023-02-22T10:06:36;7.50;99.90
54124;DHT22;55741;53.252;5.788;2023-02-22T10:09:10;7.50;99.90
54124;DHT22;55741;53.252;5.788;2023-02-22T10:14:42;7.60;99.90
54124;DHT22;55741;53.252;5.788;2023-02-22T10:17:13;7.60;99.90
54124;DHT22;55741;53.252;5.788;2023-02-22T10:30:52;7.70;99.90
54124;DHT22;55741;53.252;5.788;2023-02-22T10:33:23;7.70;99.90
54124;DHT22;55741;53.252;5.788;2023-02-22T10:35:53;7.80;99.90
54124;DHT22;55741;53.252;5.788;2023-02-22T10:38:24;7.80;99.90
54124;DHT22;55741;53.252;5.788;2023-02-22T10:43:42;8.00;99.90
54124;DHT22;55741;53.252;5.788;2023-02-22T10:46:12;8.00;99.90
54124;DHT22;55741;53.252;5.788;2023-02-22T10:48:43;8.10;99.90
54124;DHT22;55741;53.252;5.788;2023-02-22T10:51:09;8.10;99.90
54124;DHT22;55741;53.252;5.788;2023-02-22T10:53:37;8.10;99.90
54124;DHT22;55741;53.252;5.788;2023-02-22T10:56:22;8.20;99.90
54124;DHT22;55741;53.252;5.788;2023-02-22T10:59:01;8.20;99.90
54124;DHT22;55741;53.252;5.788;2023-02-22T11:04:19;8.20;99.90
54124;DHT22;55741;53.252;5.788;2023-02-22T11:07:20;8.30;99.90
54124;DHT22;55741;53.252;5.788;2023-02-22T11:09:56;8.30;99.90
54124;DHT22;55741;53.252;5.788;2023-02-22T11:12:30;8.40;99.90
54124;DHT22;55741;53.252;5.788;2023-02-22T11:17:49;8.40;99.90
54124;DHT22;55741;53.252;5.788;2023-02-22T11:20:24;8.40;99.90
54124;DHT22;55741;53.252;5.788;2023-02-22T11:22:55;8.40;99.90
54124;DHT22;55741;53.252;5.788;2023-02-22T11:25:40;8.40;99.90
54124;DHT22;55741;53.252;5.788;2023-02-22T11:28:27;8.40;99.90
54124;DHT22;55741;53.252;5.788;2023-02-22T11:31:15;8.40;99.90
54124;DHT22;55741;53.252;5.788;2023-02-22T11:33:48;8.50;99.90
54124;DHT22;55741;53.252;5.788;2023-02-22T11:38:58;8.60;99.90
54124;DHT22;55741;53.252;5.788;2023-02-22T11:41:27;8.60;99.90
54124;DHT22;55741;53.252;5.788;2023-02-22T11:44:20;8.60;99.90
54124;DHT22;55741;53.252;5.788;2023-02-22T11:46:46;8.70;99.90
54124;DHT22;55741;53.252;5.788;2023-02-22T11:49:15;8.70;99.90
54124;DHT22;55741;53.252;5.788;2023-02-22T11:52:04;8.80;99.90
54124;DHT22;55741;53.252;5.788;2023-02-22T11:57:49;8.90;99.90
54124;DHT22;55741;53.252;5.788;2023-02-22T12:00:47;8.90;99.90
54124;DHT22;55741;53.252;5.788;2023-02-22T12:08:56;9.00;99.90
54124;DHT22;55741;53.252;5.788;2023-02-22T12:11:26;9.00;99.90
54124;DHT22;55741;53.252;5.788;2023-02-22T12:21:56;9.10;99.90
54124;DHT22;55741;53.252;5.788;2023-02-22T12:24:30;9.10;99.90
54124;DHT22;55741;53.252;5.788;2023-02-22T12:27:35;9.10;99.90
54124;DHT22;55741;53.252;5.788;2023-02-22T12:32:48;9.20;99.90
54124;DHT22;55741;53.252;5.788;2023-02-22T12:35:25;9.20;99.90
54124;DHT22;55741;53.252;5.788;2023-02-22T12:40:50;9.20;99.90
54124;DHT22;55741;53.252;5.788;2023-02-22T12:56:47;9.20;99.90
54124;DHT22;55741;53.252;5.788;2023-02-22T12:59:52;9.20;99.90
54124;DHT22;55741;53.252;5.788;2023-02-22T13:04:39;9.10;99.90
54124;DHT22;55741;53.252;5.788;2023-02-22T13:07:10;9.10;99.90
54124;DHT22;55741;53.252;5.788;2023-02-22T13:26:37;9.10;99.90
54124;DHT22;55741;53.252;5.788;2023-02-22T13:29:12;9.10;99.90
54124;DHT22;55741;53.252;5.788;2023-02-22T13:47:49;9.00;99.90
54124;DHT22;55741;53.252;5.788;2023-02-22T13:52:51;8.90;99.90
54124;DHT22;55741;53.252;5.788;2023-02-22T13:55:30;8.90;99.90
54124;DHT22;55741;53.252;5.788;2023-02-22T13:58:07;8.90;99.90
54124;DHT22;55741;53.252;5.788;2023-02-22T14:00:57;8.90;99.90
54124;DHT22;55741;53.252;5.788;2023-02-22T14:03:32;8.90;99.90
54124;DHT22;55741;53.252;5.788;2023-02-22T14:06:02;8.90;99.90
54124;DHT22;55741;53.252;5.788;2023-02-22T14:11:02;8.90;99.90
54124;DHT22;55741;53.252;5.788;2023-02-22T14:13:32;8.90;99.90
54124;DHT22;55741;53.252;5.788;2023-02-22T14:16:27;8.90;99.90
54124;DHT22;55741;53.252;5.788;2023-02-22T14:19:23;8.90;99.90
54124;DHT22;55741;53.252;5.788;2023-02-22T14:21:58;8.90;99.90
54124;DHT22;55741;53.252;5.788;2023-02-22T14:24:46;8.80;99.90
54124;DHT22;55741;53.252;5.788;2023-02-22T14:27:14;8.80;99.90
54124;DHT22;55741;53.252;5.788;2023-02-22T14:29:54;8.80;99.90
54124;DHT22;55741;53.252;5.788;2023-02-22T14:32:30;8.80;99.90
54124;DHT22;55741;53.252;5.788;2023-02-22T14:35:05;8.80;99.90
54124;DHT22;55741;53.252;5.788;2023-02-22T14:37:34;8.90;99.90
54124;DHT22;55741;53.252;5.788;2023-02-22T14:40:25;8.90;99.90
54124;DHT22;55741;53.252;5.788;2023-02-22T14:43:13;8.90;99.90
54124;DHT22;55741;53.252;5.788;2023-02-22T14:45:47;8.90;99.90
54124;DHT22;55741;53.252;5.788;2023-02-22T14:48:31;8.90;99.90
54124;DHT22;55741;53.252;5.788;2023-02-22T14:51:20;8.90;99.90
54124;DHT22;55741;53.252;5.788;2023-02-22T14:53:53;9.00;99.90
54124;DHT22;55741;53.252;5.788;2023-02-22T14:56:23;9.00;99.90
54124;DHT22;55741;53.252;5.788;2023-02-22T15:01:35;9.00;99.90
54124;DHT22;55741;53.252;5.788;2023-02-22T15:04:26;9.00;99.90
54124;DHT22;55741;53.252;5.788;2023-02-22T15:06:54;9.00;99.90
54124;DHT22;55741;53.252;5.788;2023-02-22T15:09:27;9.00;99.90
54124;DHT22;55741;53.252;5.788;2023-02-22T15:14:30;9.00;99.90
54124;DHT22;55741;53.252;5.788;2023-02-22T15:17:00;9.00;99.90
54124;DHT22;55741;53.252;5.788;2023-02-22T15:19:38;9.00;99.90
54124;DHT22;55741;53.252;5.788;2023-02-22T15:22:05;9.00;99.90
54124;DHT22;55741;53.252;5.788;2023-02-22T15:24:41;9.00;99.90
54124;DHT22;55741;53.252;5.788;2023-02-22T15:27:15;9.00;99.90
54124;DHT22;55741;53.252;5.788;2023-02-22T15:29:47;9.00;99.90
54124;DHT22;55741;53.252;5.788;2023-02-22T15:32:30;9.00;99.90
54124;DHT22;55741;53.252;5.788;2023-02-22T15:35:27;8.90;99.90
54124;DHT22;55741;53.252;5.788;2023-02-22T15:40:27;8.90;99.90
54124;DHT22;55741;53.252;5.788;2023-02-22T15:43:01;8.80;99.90
54124;DHT22;55741;53.252;5.788;2023-02-22T15:45:29;8.80;99.90
54124;DHT22;55741;53.252;5.788;2023-02-22T15:47:57;8.80;99.90
54124;DHT22;55741;53.252;5.788;2023-02-22T15:50:30;8.80;99.90
54124;DHT22;55741;53.252;5.788;2023-02-22T15:52:58;8.80;99.90
54124;DHT22;55741;53.252;5.788;2023-02-22T15:58:18;8.80;99.90
54124;DHT22;55741;53.252;5.788;2023-02-22T16:00:50;8.80;99.90
54124;DHT22;55741;53.252;5.788;2023-02-22T16:03:22;8.80;99.90
54124;DHT22;55741;53.252;5.788;2023-02-22T16:05:54;8.70;99.90
54124;DHT22;55741;53.252;5.788;2023-02-22T16:08:39;8.70;99.90
54124;DHT22;55741;53.252;5.788;2023-02-22T16:11:10;8.70;99.90
54124;DHT22;55741;53.252;5.788;2023-02-22T16:13:40;8.70;99.90
54124;DHT22;55741;53.252;5.788;2023-02-22T16:18:41;8.60;99.90
54124;DHT22;55741;53.252;5.788;2023-02-22T16:21:10;8.60;99.90
54124;DHT22;55741;53.252;5.788;2023-02-22T16:23:52;8.60;99.90
54124;DHT22;55741;53.252;5.788;2023-02-22T16:26:30;8.60;99.90
54124;DHT22;55741;53.252;5.788;2023-02-22T16:29:02;8.50;99.90
54124;DHT22;55741;53.252;5.788;2023-02-22T16:31:38;8.50;99.90
54124;DHT22;55741;53.252;5.788;2023-02-22T16:34:06;8.50;99.90
54124;DHT22;55741;53.252;5.788;2023-02-22T16:36:46;8.40;99.90
54124;DHT22;55741;53.252;5.788;2023-02-22T16:39:30;8.40;99.90
54124;DHT22;55741;53.252;5.788;2023-02-22T16:42:15;8.40;99.90
54124;DHT22;55741;53.252;5.788;2023-02-22T16:44:45;8.30;99.90
54124;DHT22;55741;53.252;5.788;2023-02-22T16:47:11;8.30;99.90
54124;DHT22;55741;53.252;5.788;2023-02-22T16:49:37;8.30;99.90
54124;DHT22;55741;53.252;5.788;2023-02-22T16:52:05;8.30;99.90
54124;DHT22;55741;53.252;5.788;2023-02-22T16:54:41;8.30;99.90
54124;DHT22;55741;53.252;5.788;2023-02-22T16:57:17;8.30;99.90
54124;DHT22;55741;53.252;5.788;2023-02-22T16:59:43;8.20;99.90
54124;DHT22;55741;53.252;5.788;2023-02-22T17:02:13;8.20;99.90
54124;DHT22;55741;53.252;5.788;2023-02-22T17:04:42;8.20;99.90
54124;DHT22;55741;53.252;5.788;2023-02-22T17:07:21;8.20;99.90
54124;DHT22;55741;53.252;5.788;2023-02-22T17:09:56;8.20;99.90
54124;DHT22;55741;53.252;5.788;2023-02-22T17:12:29;8.10;99.90
54124;DHT22;55741;53.252;5.788;2023-02-22T17:14:56;8.10;99.90
54124;DHT22;55741;53.252;5.788;2023-02-22T17:17:22;8.10;99.90
54124;DHT22;55741;53.252;5.788;2023-02-22T17:19:48;8.10;99.90
54124;DHT22;55741;53.252;5.788;2023-02-22T17:22:21;8.10;99.90
54124;DHT22;55741;53.252;5.788;2023-02-22T17:24:47;8.00;99.90
54124;DHT22;55741;53.252;5.788;2023-02-22T17:27:14;8.00;99.90
54124;DHT22;55741;53.252;5.788;2023-02-22T17:29:40;8.00;99.90
54124;DHT22;55741;53.252;5.788;2023-02-22T17:32:07;8.00;99.90
54124;DHT22;55741;53.252;5.788;2023-02-22T17:34:33;8.00;99.90
54124;DHT22;55741;53.252;5.788;2023-02-22T17:36:59;7.90;99.90
54124;DHT22;55741;53.252;5.788;2023-02-22T17:39:25;7.90;99.90
54124;DHT22;55741;53.252;5.788;2023-02-22T17:41:52;7.90;99.90
54124;DHT22;55741;53.252;5.788;2023-02-22T17:44:24;7.90;99.90
54124;DHT22;55741;53.252;5.788;2023-02-22T17:46:49;7.80;99.90
54124;DHT22;55741;53.252;5.788;2023-02-22T17:49:15;7.80;99.90
54124;DHT22;55741;53.252;5.788;2023-02-22T17:51:41;7.80;99.90
54124;DHT22;55741;53.252;5.788;2023-02-22T17:54:07;7.80;99.90
54124;DHT22;55741;53.252;5.788;2023-02-22T17:56:33;7.80;99.90
54124;DHT22;55741;53.252;5.788;2023-02-22T17:59:01;7.70;99.90
54124;DHT22;55741;53.252;5.788;2023-02-22T18:01:29;7.70;99.90
54124;DHT22;55741;53.252;5.788;2023-02-22T18:03:58;7.70;99.90
54124;DHT22;55741;53.252;5.788;2023-02-22T18:06:30;7.70;99.90
54124;DHT22;55741;53.252;5.788;2023-02-22T18:08:58;7.70;99.90
54124;DHT22;55741;53.252;5.788;2023-02-22T18:11:30;7.70;99.90
54124;DHT22;55741;53.252;5.788;2023-02-22T18:13:57;7.70;99.90
54124;DHT22;55741;53.252;5.788;2023-02-22T18:16:24;7.70;99.90
54124;DHT22;55741;53.252;5.788;2023-02-22T18:18:53;7.70;99.90
54124;DHT22;55741;53.252;5.788;2023-02-22T18:21:19;7.70;99.90
54124;DHT22;55741;53.252;5.788;2023-02-22T18:23:44;7.70;99.90
54124;DHT22;55741;53.252;5.788;2023-02-22T18:26:20;7.70;99.90
54124;DHT22;55741;53.252;5.788;2023-02-22T18:28:46;7.70;99.90
54124;DHT22;55741;53.252;5.788;2023-02-22T18:31:17;7.70;99.90
54124;DHT22;55741;53.252;5.788;2023-02-22T18:33:45;7.60;99.90